createdAt,value
2017-09-17T00:01:53.935Z,69.50
2017-09-17T00:04:21.473Z,69.20
2017-09-17T00:06:48.993Z,69.30
2017-09-17T00:09:16.513Z,69.00
2017-09-17T00:11:44.039Z,69.20
2017-09-17T00:14:11.592Z,69.30
2017-09-17T00:16:39.122Z,69.00
2017-09-17T00:19:06.663Z,68.90
2017-09-17T00:21:34.950Z,69.60
2017-09-17T00:24:03.238Z,68.50
2017-09-17T00:26:30.795Z,68.50
2017-09-17T00:28:58.322Z,68.40
2017-09-17T00:31:25.841Z,69.00
2017-09-17T00:33:53.365Z,68.80
2017-09-17T00:36:20.898Z,69.10
2017-09-17T00:38:48.458Z,68.90
2017-09-17T00:41:16.759Z,69.00
2017-09-17T00:43:44.285Z,69.00
2017-09-17T00:46:11.809Z,69.00
2017-09-17T00:48:39.334Z,69.30
2017-09-17T00:51:06.890Z,69.00
2017-09-17T00:53:34.424Z,69.20
2017-09-17T00:56:02.721Z,69.30
2017-09-17T00:58:30.254Z,69.30
2017-09-17T01:00:58.563Z,69.30
2017-09-17T01:03:26.114Z,69.20
2017-09-17T01:05:53.654Z,69.20
2017-09-17T01:08:21.950Z,69.50
2017-09-17T01:10:50.240Z,69.20
2017-09-17T01:13:17.770Z,69.20
2017-09-17T01:15:46.098Z,69.00
2017-09-17T01:18:13.630Z,69.00
2017-09-17T01:20:41.157Z,69.20
2017-09-17T01:23:09.457Z,69.50
2017-09-17T01:25:36.982Z,69.50
2017-09-17T01:28:04.713Z,69.50
2017-09-17T01:30:32.234Z,69.40
2017-09-17T01:32:59.757Z,69.70
2017-09-17T01:35:27.286Z,70.00
2017-09-17T01:37:54.814Z,69.60
2017-09-17T01:40:22.368Z,69.50
2017-09-17T01:42:49.894Z,70.50
2017-09-17T01:45:17.420Z,70.80
2017-09-17T01:47:44.953Z,70.40
2017-09-17T01:50:12.502Z,70.20
2017-09-17T01:52:40.059Z,70.20
2017-09-17T01:55:07.594Z,69.90
2017-09-17T01:57:35.935Z,70.70
2017-09-17T02:00:03.472Z,70.20
2017-09-17T02:02:30.998Z,70.20
2017-09-17T02:04:59.318Z,70.90
2017-09-17T02:07:26.841Z,70.70
2017-09-17T02:09:55.130Z,70.50
2017-09-17T02:12:22.653Z,70.40
2017-09-17T02:14:50.185Z,70.40
2017-09-17T02:17:17.742Z,70.90
2017-09-17T02:19:45.273Z,70.60
2017-09-17T02:22:12.802Z,70.30
2017-09-17T02:24:41.094Z,69.80
2017-09-17T02:27:08.630Z,69.80
2017-09-17T02:29:36.951Z,69.70
2017-09-17T02:32:04.477Z,69.70
2017-09-17T02:34:32.005Z,69.60
2017-09-17T02:36:59.531Z,69.80
2017-09-17T02:39:27.058Z,69.70
2017-09-17T02:41:54.617Z,69.70
2017-09-17T02:44:22.142Z,69.90
2017-09-17T02:46:49.667Z,69.80
2017-09-17T02:49:17.197Z,69.90
2017-09-17T02:51:44.726Z,70.00
2017-09-17T02:54:13.050Z,70.20
2017-09-17T02:56:40.578Z,70.60
2017-09-17T02:59:08.878Z,70.40
2017-09-17T03:01:36.409Z,70.40
2017-09-17T03:04:04.702Z,70.30
2017-09-17T03:06:32.250Z,70.30
2017-09-17T03:08:59.834Z,69.90
2017-09-17T03:11:27.370Z,69.90
2017-09-17T03:13:54.894Z,69.70
2017-09-17T03:16:22.418Z,70.20
2017-09-17T03:18:49.970Z,70.20
2017-09-17T03:21:17.501Z,69.90
2017-09-17T03:23:45.030Z,69.50
2017-09-17T03:26:12.573Z,69.30
2017-09-17T03:28:40.098Z,69.20
2017-09-17T03:31:07.861Z,68.80
2017-09-17T03:33:35.389Z,68.60
2017-09-17T03:36:03.688Z,68.20
2017-09-17T03:38:31.214Z,68.10
2017-09-17T03:40:59.501Z,68.80
2017-09-17T03:43:27.814Z,68.50
2017-09-17T03:45:55.338Z,68.50
2017-09-17T03:48:22.870Z,68.50
2017-09-17T03:50:50.390Z,69.40
2017-09-17T03:53:17.913Z,69.60
2017-09-17T03:55:45.461Z,69.40
2017-09-17T03:58:13.749Z,68.60
2017-09-17T04:00:41.277Z,69.40
2017-09-17T04:03:08.806Z,68.50
2017-09-17T04:05:36.338Z,68.80
2017-09-17T04:08:03.887Z,68.80
2017-09-17T04:10:31.422Z,68.90
2017-09-17T04:12:59.713Z,69.80
2017-09-17T04:15:28.002Z,70.00
2017-09-17T04:17:55.528Z,70.00
2017-09-17T04:20:23.842Z,70.50
2017-09-17T04:22:51.370Z,70.40
2017-09-17T04:25:19.658Z,70.50
2017-09-17T04:27:47.185Z,71.40
2017-09-17T04:30:14.710Z,70.80
2017-09-17T04:32:42.266Z,70.30
2017-09-17T04:35:09.798Z,70.10
2017-09-17T04:37:37.322Z,69.60
2017-09-17T04:40:04.850Z,69.30
2017-09-17T04:42:32.377Z,69.20
2017-09-17T04:44:59.925Z,68.90
2017-09-17T04:47:27.450Z,69.30
2017-09-17T04:49:54.978Z,69.20
2017-09-17T04:52:22.549Z,69.30
2017-09-17T04:54:50.077Z,69.00
2017-09-17T04:57:17.626Z,68.80
2017-09-17T04:59:45.150Z,69.50
2017-09-17T05:02:13.458Z,71.00
2017-09-17T05:04:41.025Z,71.00
2017-09-17T05:07:08.550Z,70.80
2017-09-17T05:09:36.871Z,71.00
2017-09-17T05:12:04.399Z,70.90
2017-09-17T05:14:32.688Z,70.00
2017-09-17T05:17:00.210Z,69.90
2017-09-17T05:19:27.738Z,71.60
2017-09-17T05:21:55.294Z,71.60
2017-09-17T05:24:22.840Z,71.00
2017-09-17T05:26:50.370Z,70.90
2017-09-17T05:29:17.898Z,70.50
2017-09-17T05:31:45.428Z,69.70
2017-09-17T05:34:13.005Z,69.20
2017-09-17T05:36:41.299Z,68.40
2017-09-17T05:39:09.597Z,68.20
2017-09-17T05:41:37.121Z,68.20
2017-09-17T05:44:04.646Z,67.90
2017-09-17T05:46:32.194Z,67.30
2017-09-17T05:48:59.713Z,67.30
2017-09-17T05:51:28.015Z,66.80
2017-09-17T05:53:55.533Z,66.80
2017-09-17T05:56:23.058Z,66.90
2017-09-17T05:58:50.610Z,66.70
2017-09-17T06:01:18.146Z,66.50
2017-09-17T06:03:45.675Z,66.40
2017-09-17T06:06:13.342Z,66.60
2017-09-17T06:08:41.634Z,66.40
2017-09-17T06:11:09.189Z,66.30
2017-09-17T06:13:37.493Z,66.40
2017-09-17T06:16:05.018Z,66.40
2017-09-17T06:18:33.335Z,66.70
2017-09-17T06:21:00.858Z,66.70
2017-09-17T06:23:28.410Z,66.30
2017-09-17T06:25:56.711Z,65.80
2017-09-17T06:28:24.234Z,65.80
2017-09-17T06:30:52.529Z,66.00
2017-09-17T06:33:20.059Z,66.00
2017-09-17T06:35:47.611Z,65.90
2017-09-17T06:38:15.142Z,66.10
2017-09-17T06:40:42.678Z,66.30
2017-09-17T06:43:10.201Z,66.30
2017-09-17T06:45:38.489Z,67.20
2017-09-17T06:48:06.807Z,67.00
2017-09-17T06:50:34.331Z,67.00
2017-09-17T06:53:01.863Z,66.60
2017-09-17T06:55:29.404Z,67.30
2017-09-17T06:57:56.939Z,66.90
2017-09-17T07:00:24.496Z,66.50
2017-09-17T07:02:52.039Z,66.10
2017-09-17T07:05:19.569Z,66.00
2017-09-17T07:07:47.866Z,65.40
2017-09-17T07:10:15.398Z,65.30
2017-09-17T07:12:43.722Z,65.30
2017-09-17T07:15:11.270Z,65.30
2017-09-17T07:17:38.801Z,65.10
2017-09-17T07:20:07.094Z,64.50
2017-09-17T07:22:34.622Z,64.50
2017-09-17T07:25:02.945Z,64.10
2017-09-17T07:27:30.479Z,64.00
2017-09-17T07:29:58.001Z,64.30
2017-09-17T07:32:25.526Z,64.80
2017-09-17T07:34:56.799Z,64.50
2017-09-17T07:37:24.365Z,64.10
2017-09-17T07:39:51.896Z,64.70
2017-09-17T07:42:19.718Z,63.50
2017-09-17T07:44:48.202Z,65.00
2017-09-17T07:47:15.949Z,64.90
2017-09-17T07:49:44.266Z,64.40
2017-09-17T07:52:12.033Z,64.40
2017-09-17T07:54:39.814Z,63.90
2017-09-17T07:57:07.554Z,63.20
2017-09-17T07:59:35.091Z,64.00
2017-09-17T08:02:02.652Z,63.80
2017-09-17T08:04:30.182Z,63.90
2017-09-17T08:06:57.710Z,63.80
2017-09-17T08:09:25.239Z,63.20
2017-09-17T08:11:52.766Z,63.40
2017-09-17T08:14:21.082Z,61.70
2017-09-17T08:16:48.602Z,61.70
2017-09-17T08:19:17.049Z,60.40
2017-09-17T08:21:44.574Z,60.30
2017-09-17T08:24:12.209Z,60.40
2017-09-17T08:26:40.532Z,59.80
2017-09-17T08:29:08.285Z,59.70
2017-09-17T08:31:36.092Z,60.00
2017-09-17T08:34:04.634Z,59.20
2017-09-17T08:36:32.325Z,59.20
2017-09-17T08:38:59.934Z,57.60
2017-09-17T08:41:27.826Z,57.50
2017-09-17T08:43:55.350Z,57.40
2017-09-17T08:46:22.874Z,56.90
2017-09-17T08:48:50.475Z,57.00
2017-09-17T08:51:18.168Z,56.60
2017-09-17T08:53:45.816Z,56.60
2017-09-17T08:56:13.591Z,57.30
2017-09-17T08:58:41.234Z,56.60
2017-09-17T09:01:08.802Z,56.60
2017-09-17T09:03:36.491Z,56.00
2017-09-17T09:06:05.118Z,55.60
2017-09-17T09:08:33.405Z,54.90
2017-09-17T09:11:00.930Z,54.80
2017-09-17T09:13:29.757Z,55.60
2017-09-17T09:15:57.402Z,55.60
2017-09-17T09:18:24.926Z,55.60
2017-09-17T09:20:52.846Z,55.70
2017-09-17T09:23:20.550Z,55.80
2017-09-17T09:25:48.075Z,55.60
2017-09-17T09:28:15.834Z,55.10
2017-09-17T09:30:43.698Z,55.40
2017-09-17T09:33:11.233Z,55.50
2017-09-17T09:35:38.762Z,55.80
2017-09-17T09:38:06.293Z,55.60
2017-09-17T09:40:33.850Z,54.60
2017-09-17T09:43:01.782Z,54.70
2017-09-17T09:45:29.687Z,54.80
2017-09-17T09:48:13.454Z,54.40
2017-09-17T09:50:41.246Z,54.70
2017-09-17T09:53:08.769Z,54.50
2017-09-17T09:55:36.304Z,54.30
2017-09-17T09:58:03.840Z,53.60
2017-09-17T10:00:31.446Z,53.30
2017-09-17T10:02:59.322Z,53.60
2017-09-17T10:05:26.974Z,52.70
2017-09-17T10:07:54.785Z,51.20
2017-09-17T10:10:22.309Z,49.80
2017-09-17T10:12:50.143Z,49.00
2017-09-17T10:15:19.062Z,48.10
2017-09-17T10:17:46.850Z,48.10
2017-09-17T10:20:15.538Z,48.70
2017-09-17T10:22:43.208Z,48.70
2017-09-17T10:25:10.781Z,48.90
2017-09-17T10:27:38.330Z,48.10
2017-09-17T10:30:05.858Z,47.50
2017-09-17T10:32:34.149Z,48.30
2017-09-17T10:35:02.442Z,47.50
2017-09-17T10:37:29.974Z,47.50
2017-09-17T10:39:58.298Z,47.50
2017-09-17T10:42:25.838Z,47.50
2017-09-17T10:44:53.362Z,47.10
2017-09-17T10:47:21.654Z,48.30
2017-09-17T10:49:49.211Z,48.20
2017-09-17T10:52:17.554Z,49.00
2017-09-17T10:54:45.079Z,49.00
2017-09-17T10:57:12.620Z,48.80
2017-09-17T10:59:40.150Z,48.00
2017-09-17T11:02:08.446Z,47.70
2017-09-17T11:04:36.002Z,47.60
2017-09-17T11:07:03.529Z,47.30
2017-09-17T11:09:31.062Z,47.40
2017-09-17T11:11:58.598Z,47.10
2017-09-17T11:14:26.127Z,47.60
2017-09-17T11:16:54.449Z,47.00
2017-09-17T11:19:21.992Z,47.00
2017-09-17T11:21:49.519Z,46.20
2017-09-17T11:24:17.808Z,47.00
2017-09-17T11:26:45.337Z,46.90
2017-09-17T11:29:12.896Z,47.00
2017-09-17T11:31:41.193Z,47.30
2017-09-17T11:34:09.502Z,45.60
2017-09-17T11:36:37.043Z,45.60
2017-09-17T11:39:04.571Z,46.30
2017-09-17T11:41:32.896Z,47.00
2017-09-17T11:44:00.422Z,46.90
2017-09-17T11:46:28.720Z,47.70
2017-09-17T11:48:56.250Z,47.70
2017-09-17T11:51:24.545Z,49.20
2017-09-17T11:53:52.099Z,49.20
2017-09-17T11:56:19.630Z,49.60
2017-09-17T11:58:47.927Z,49.70
2017-09-17T12:01:15.457Z,49.70
2017-09-17T12:03:42.982Z,49.90
2017-09-17T12:06:10.526Z,49.30
2017-09-17T12:08:38.050Z,49.60
2017-09-17T12:11:06.342Z,50.20
2017-09-17T12:13:33.886Z,50.10
2017-09-17T12:16:02.185Z,51.00
2017-09-17T12:18:29.739Z,51.00
2017-09-17T12:20:57.273Z,51.70
2017-09-17T12:23:25.562Z,51.20
2017-09-17T12:25:53.094Z,51.10
2017-09-17T12:28:20.619Z,51.80
2017-09-17T12:30:48.174Z,51.10
2017-09-17T12:33:15.698Z,50.30
2017-09-17T12:35:43.224Z,50.50
2017-09-17T12:38:10.749Z,50.90
2017-09-17T12:40:38.370Z,51.70
2017-09-17T12:43:06.762Z,51.90
2017-09-17T12:45:34.294Z,51.90
2017-09-17T12:48:02.586Z,51.00
2017-09-17T12:50:30.128Z,51.00
2017-09-17T12:52:58.425Z,52.50
2017-09-17T12:55:25.983Z,52.40
2017-09-17T12:57:53.508Z,52.50
2017-09-17T13:00:21.039Z,53.10
2017-09-17T13:02:48.566Z,52.80
2017-09-17T13:05:16.101Z,53.20
2017-09-17T13:07:44.413Z,53.40
2017-09-17T13:10:11.942Z,53.40
2017-09-17T13:12:40.235Z,53.80
2017-09-17T13:15:07.783Z,53.80
2017-09-17T13:17:35.310Z,54.20
2017-09-17T13:20:02.917Z,54.30
2017-09-17T13:22:30.478Z,54.80
2017-09-17T13:24:58.014Z,55.10
2017-09-17T13:27:26.337Z,54.70
2017-09-17T13:29:53.862Z,54.60
2017-09-17T13:32:21.410Z,54.70
2017-09-17T13:34:48.934Z,55.00
2017-09-17T13:37:16.461Z,55.30
2017-09-17T13:39:43.991Z,55.00
2017-09-17T13:42:11.522Z,55.10
2017-09-17T13:44:39.842Z,55.90
2017-09-17T13:47:07.374Z,55.70
2017-09-17T13:49:35.666Z,56.00
2017-09-17T13:52:03.189Z,56.00
2017-09-17T13:54:31.485Z,56.00
2017-09-17T13:56:59.806Z,56.00
2017-09-17T13:59:27.928Z,55.90
2017-09-17T14:02:01.730Z,56.50
2017-09-17T14:04:45.815Z,56.50
2017-09-17T14:07:15.262Z,56.50
2017-09-17T14:09:42.790Z,56.50
2017-09-17T14:12:10.343Z,56.80
2017-09-17T14:14:37.874Z,57.10
2017-09-17T14:17:05.402Z,56.60
2017-09-17T14:19:33.742Z,57.10
2017-09-17T14:22:01.269Z,56.30
2017-09-17T14:24:28.795Z,56.40
2017-09-17T14:26:57.093Z,56.30
2017-09-17T14:29:24.622Z,56.30
2017-09-17T14:31:52.170Z,56.20
2017-09-17T14:34:19.695Z,56.20
2017-09-17T14:36:47.225Z,56.30
2017-09-17T14:39:14.754Z,56.30
2017-09-17T14:41:42.284Z,56.10
2017-09-17T14:44:09.899Z,56.10
2017-09-17T14:46:37.431Z,56.50
2017-09-17T14:49:04.955Z,56.50
2017-09-17T14:51:32.481Z,56.00
2017-09-17T14:54:00.018Z,56.10
2017-09-17T14:56:28.342Z,56.60
2017-09-17T14:58:55.880Z,56.50
2017-09-17T15:01:23.410Z,56.60
2017-09-17T15:03:51.723Z,56.20
2017-09-17T15:06:19.250Z,56.20
2017-09-17T15:08:47.569Z,56.30
2017-09-17T15:11:15.096Z,56.20
2017-09-17T15:13:42.633Z,56.00
2017-09-17T15:16:10.926Z,55.80
2017-09-17T15:18:38.466Z,56.10
2017-09-17T15:21:06.790Z,55.90
2017-09-17T15:23:34.314Z,55.90
2017-09-17T15:26:02.602Z,56.10
2017-09-17T15:28:30.125Z,56.00
2017-09-17T15:30:57.742Z,55.90
2017-09-17T15:33:25.298Z,56.30
2017-09-17T15:35:52.817Z,56.90
2017-09-17T15:38:21.107Z,57.10
2017-09-17T15:40:48.646Z,57.10
2017-09-17T15:43:16.939Z,57.20
2017-09-17T15:45:45.254Z,57.50
2017-09-17T15:48:12.781Z,57.40
2017-09-17T15:50:40.305Z,57.40
2017-09-17T15:53:07.832Z,57.50
2017-09-17T15:55:35.354Z,57.90
2017-09-17T15:58:02.914Z,58.10
2017-09-17T16:00:30.438Z,58.10
2017-09-17T16:02:57.962Z,59.00
2017-09-17T16:05:25.490Z,59.20
2017-09-17T16:07:53.016Z,59.70
2017-09-17T16:10:21.340Z,60.10
2017-09-17T16:12:48.875Z,59.70
2017-09-17T16:15:17.174Z,59.90
2017-09-17T16:17:44.705Z,59.90
2017-09-17T16:20:13.009Z,61.30
2017-09-17T16:22:40.570Z,61.30
2017-09-17T16:25:08.094Z,61.40
2017-09-17T16:27:36.383Z,61.00
2017-09-17T16:30:03.909Z,61.00
2017-09-17T16:32:31.436Z,60.90
2017-09-17T16:34:58.993Z,61.10
2017-09-17T16:37:26.518Z,61.30
2017-09-17T16:39:54.047Z,61.10
2017-09-17T16:42:21.570Z,61.10
2017-09-17T16:44:49.111Z,61.50
2017-09-17T16:47:16.663Z,61.40
2017-09-17T16:49:45.063Z,60.90
2017-09-17T16:52:12.595Z,60.80
2017-09-17T16:54:40.131Z,60.90
2017-09-17T16:57:08.425Z,61.90
2017-09-17T16:59:35.975Z,61.80
2017-09-17T17:02:03.517Z,62.10
2017-09-17T17:04:31.821Z,62.20
2017-09-17T17:06:59.357Z,62.20
2017-09-17T17:09:27.661Z,63.20
2017-09-17T17:11:55.442Z,63.20
2017-09-17T17:14:22.990Z,63.60
2017-09-17T17:16:50.514Z,63.80
2017-09-17T17:19:18.821Z,64.30
2017-09-17T17:21:46.387Z,64.30
2017-09-17T17:24:13.946Z,64.00
2017-09-17T17:26:41.482Z,64.10
2017-09-17T17:29:09.005Z,64.50
2017-09-17T17:31:36.530Z,64.50
2017-09-17T17:34:04.114Z,64.10
2017-09-17T17:36:31.665Z,64.00
2017-09-17T17:38:59.193Z,63.70
2017-09-17T17:41:26.722Z,63.60
2017-09-17T17:43:55.010Z,62.40
2017-09-17T17:46:22.534Z,62.30
2017-09-17T17:48:50.087Z,61.30
2017-09-17T17:51:17.618Z,60.60
2017-09-17T17:53:45.158Z,61.40
2017-09-17T17:56:12.686Z,62.20
2017-09-17T17:58:40.992Z,61.80
2017-09-17T18:01:08.551Z,61.80
2017-09-17T18:03:36.086Z,61.70
2017-09-17T18:06:04.401Z,60.90
2017-09-17T18:08:31.921Z,60.90
2017-09-17T18:11:00.216Z,61.00
2017-09-17T18:13:27.898Z,61.00
2017-09-17T18:15:56.449Z,60.80
2017-09-17T18:18:23.974Z,60.80
2017-09-17T18:20:51.497Z,60.40
2017-09-17T18:23:19.022Z,61.30
2017-09-17T18:25:46.606Z,61.30
2017-09-17T18:28:14.135Z,61.30
2017-09-17T18:30:41.813Z,61.10
2017-09-17T18:33:09.993Z,61.30
2017-09-17T18:35:38.677Z,60.80
2017-09-17T18:38:06.343Z,60.80
2017-09-17T18:40:33.910Z,60.60
2017-09-17T18:43:01.446Z,60.80
2017-09-17T18:45:28.974Z,60.80
2017-09-17T18:47:57.274Z,60.80
2017-09-17T18:50:30.629Z,60.70
2017-09-17T18:52:58.167Z,61.00
2017-09-17T18:55:25.696Z,60.80
2017-09-17T18:57:53.250Z,61.00
2017-09-17T19:00:20.778Z,60.80
2017-09-17T19:02:49.114Z,60.30
2017-09-17T19:05:16.686Z,60.30
2017-09-17T19:07:44.218Z,60.40
2017-09-17T19:10:11.754Z,59.90
2017-09-17T19:12:39.344Z,59.50
2017-09-17T19:15:06.935Z,59.40
2017-09-17T19:17:34.462Z,59.50
2017-09-17T19:20:02.007Z,59.50
2017-09-17T19:22:29.529Z,59.30
2017-09-17T19:24:57.823Z,60.10
2017-09-17T19:27:25.382Z,60.10
2017-09-17T19:29:52.910Z,60.80
2017-09-17T19:32:21.214Z,59.80
2017-09-17T19:34:48.750Z,59.80
2017-09-17T19:37:17.063Z,59.50
2017-09-17T19:39:44.821Z,59.50
2017-09-17T19:42:12.347Z,59.00
2017-09-17T19:44:40.659Z,59.40
2017-09-17T19:47:08.193Z,59.30
2017-09-17T19:49:36.485Z,60.20
2017-09-17T19:52:04.043Z,60.20
2017-09-17T19:54:31.576Z,60.20
2017-09-17T19:56:59.869Z,61.30
2017-09-17T19:59:28.164Z,61.10
2017-09-17T20:01:55.695Z,61.00
2017-09-17T20:04:24.018Z,61.00
2017-09-17T20:06:51.546Z,60.80
2017-09-17T20:09:19.074Z,60.20
2017-09-17T20:11:47.377Z,60.20
2017-09-17T20:14:14.902Z,59.70
2017-09-17T20:16:42.490Z,59.70
2017-09-17T20:19:10.788Z,59.40
2017-09-17T20:21:38.320Z,59.30
2017-09-17T20:24:06.608Z,59.50
2017-09-17T20:26:34.146Z,59.50
2017-09-17T20:29:02.466Z,60.40
2017-09-17T20:31:29.994Z,60.20
2017-09-17T20:33:57.526Z,60.70
2017-09-17T20:36:25.074Z,60.50
2017-09-17T20:38:52.602Z,61.10
2017-09-17T20:41:20.158Z,61.30
2017-09-17T20:43:47.689Z,61.60
2017-09-17T20:46:15.214Z,62.10
2017-09-17T20:48:42.738Z,62.90
2017-09-17T20:51:10.265Z,63.70
2017-09-17T20:53:37.825Z,63.90
2017-09-17T20:56:05.354Z,64.00
2017-09-17T20:58:33.654Z,64.50
2017-09-17T21:01:01.188Z,63.60
2017-09-17T21:03:29.493Z,65.60
2017-09-17T21:05:57.053Z,64.80
2017-09-17T21:08:24.585Z,65.50
2017-09-17T21:10:52.910Z,66.80
2017-09-17T21:13:20.442Z,66.80
2017-09-17T21:15:47.970Z,67.20
2017-09-17T21:18:16.321Z,66.70
2017-09-17T21:20:43.858Z,66.60
2017-09-17T21:23:11.386Z,66.70
2017-09-17T21:25:39.678Z,67.30
2017-09-17T21:28:07.210Z,67.30
2017-09-17T21:30:35.530Z,66.40
2017-09-17T21:33:03.074Z,66.30
2017-09-17T21:35:30.622Z,65.60
2017-09-17T21:37:58.207Z,65.40
2017-09-17T21:40:25.729Z,65.80
2017-09-17T21:42:54.051Z,66.30
2017-09-17T21:45:21.588Z,66.30
2017-09-17T21:47:49.122Z,66.40
2017-09-17T21:50:17.422Z,67.40
2017-09-17T21:52:44.942Z,67.40
2017-09-17T21:55:13.261Z,67.90
2017-09-17T21:57:40.785Z,67.90
2017-09-17T22:00:09.081Z,67.70
2017-09-17T22:02:36.638Z,67.70
2017-09-17T22:05:04.166Z,67.20
2017-09-17T22:07:31.724Z,68.10
2017-09-17T22:09:59.354Z,68.70
2017-09-17T22:12:26.878Z,69.10
2017-09-17T22:14:54.414Z,69.50
2017-09-17T22:17:22.711Z,68.60
2017-09-17T22:19:50.265Z,68.50
2017-09-17T22:22:17.790Z,68.00
2017-09-17T22:24:45.318Z,67.80
2017-09-17T22:27:12.842Z,66.40
2017-09-17T22:29:40.366Z,66.60
2017-09-17T22:32:07.986Z,66.50
2017-09-17T22:34:35.537Z,66.80
2017-09-17T22:37:03.062Z,68.50
2017-09-17T22:39:31.350Z,69.70
2017-09-17T22:41:58.875Z,69.70
2017-09-17T22:44:26.434Z,69.10
2017-09-17T22:46:53.963Z,68.90
2017-09-17T22:49:21.488Z,68.80
2017-09-17T22:51:49.014Z,69.30
2017-09-17T22:54:16.547Z,68.80
2017-09-17T22:56:44.101Z,69.10
2017-09-17T22:59:11.637Z,69.00
2017-09-17T23:01:39.174Z,69.00
2017-09-17T23:04:06.699Z,69.00
2017-09-17T23:06:34.229Z,68.60
2017-09-17T23:09:01.781Z,67.90
2017-09-17T23:11:29.304Z,68.00
2017-09-17T23:13:57.591Z,68.90
2017-09-17T23:16:25.138Z,68.90
2017-09-17T23:18:52.671Z,68.50
2017-09-17T23:21:20.230Z,68.30
2017-09-17T23:23:47.754Z,68.30
2017-09-17T23:26:15.287Z,68.40
2017-09-17T23:28:42.815Z,69.50
2017-09-17T23:31:11.118Z,70.00
2017-09-17T23:33:38.667Z,70.00
2017-09-17T23:36:06.194Z,69.70
2017-09-17T23:38:33.718Z,69.30
2017-09-17T23:41:01.241Z,69.50
2017-09-17T23:43:28.783Z,69.20
2017-09-17T23:45:57.102Z,67.30
2017-09-17T23:48:24.630Z,67.20
2017-09-17T23:50:52.153Z,66.90
2017-09-17T23:53:19.678Z,66.10
2017-09-17T23:55:47.202Z,65.70
2017-09-17T23:58:15.521Z,64.90
